Terminal Aerodrome Forecast
Issued by NWS

Home | Current Version | Previous Version | Text Only | Print | Product List | Glossary Off
Versions: 1 2 3 4 5 6 7 8 9 10 11 12 13

219
FTUS43 KMPX 272338
TAFRNH
TAF
KRNH 272338Z 2800/2824 VRB02KT P6SM SCT150
     FM280800 04004KT 3SM BR FEW150
     FM281100 07004KT 1SM BR FEW100
     FM281300 05003KT 3SM BR FEW100
     FM281500 07006KT P6SM FEW200=

USA.gov is the U.S. government's official web portal to all federal, state and local government web resources and services.